createdAt,value
2022-08-27T00:00:40.665Z,987.27
2022-08-27T00:01:45.934Z,987.21
2022-08-27T00:02:46.644Z,987.25
2022-08-27T00:03:50.264Z,987.27
2022-08-27T00:04:50.084Z,987.24
2022-08-27T00:05:52.870Z,987.23
2022-08-27T00:06:58.416Z,987.22
2022-08-27T00:07:57.758Z,987.21
2022-08-27T00:09:00.612Z,987.21
2022-08-27T00:10:03.360Z,987.2
2022-08-27T00:11:06.243Z,987.22
2022-08-27T00:12:09.014Z,987.21
2022-08-27T00:13:11.807Z,987.22
2022-08-27T00:14:14.585Z,987.18
2022-08-27T00:15:18.225Z,987.21
2022-08-27T00:16:19.090Z,987.21
2022-08-27T00:17:18.547Z,987.24
2022-08-27T00:18:31.120Z,987.21
2022-08-27T00:19:23.495Z,987.21
2022-08-27T00:20:26.294Z,987.2
2022-08-27T00:21:29.070Z,987.21
2022-08-27T00:22:31.914Z,987.21
2022-08-27T00:23:34.704Z,987.21
2022-08-27T00:24:49.449Z,987.17
2022-08-27T00:25:38.343Z,987.17
2022-08-27T00:26:43.808Z,987.17
2022-08-27T00:27:43.146Z,987.17
2022-08-27T00:28:45.916Z,987.21
2022-08-27T00:29:48.684Z,987.19
2022-08-27T00:30:51.501Z,987.2
2022-08-27T00:31:54.752Z,987.22
2022-08-27T00:32:57.641Z,987.19
2022-08-27T00:34:00.422Z,987.21
2022-08-27T00:35:03.218Z,987.22
2022-08-27T00:36:05.993Z,987.23
2022-08-27T00:37:08.784Z,987.21
2022-08-27T00:38:14.780Z,987.24
2022-08-27T00:39:14.073Z,987.23
2022-08-27T00:40:17.247Z,987.25
2022-08-27T00:41:20.056Z,987.23
2022-08-27T00:42:22.919Z,987.2
2022-08-27T00:43:25.699Z,987.21
2022-08-27T00:44:28.470Z,987.22
2022-08-27T00:45:34.875Z,987.18
2022-08-27T00:46:31.613Z,987.22
2022-08-27T00:47:34.396Z,987.19
2022-08-27T00:48:37.155Z,987.16
2022-08-27T00:49:39.894Z,987.15
2022-08-27T00:50:42.706Z,987.15
2022-08-27T00:51:51.240Z,987.13
2022-08-27T00:52:47.088Z,987.14
2022-08-27T00:53:49.856Z,987.17
2022-08-27T00:54:52.612Z,987.19
2022-08-27T00:55:55.373Z,987.21
2022-08-27T00:56:58.157Z,987.2
2022-08-27T00:58:05.926Z,987.19
2022-08-27T00:59:01.875Z,987.22
2022-08-27T01:00:04.658Z,987.2
2022-08-27T01:01:08.238Z,987.17
2022-08-27T01:02:07.828Z,987.21
2022-08-27T01:03:10.820Z,987.19
2022-08-27T01:04:13.622Z,987.19
2022-08-27T01:05:16.409Z,987.17
2022-08-27T01:06:19.179Z,987.13
2022-08-27T01:07:21.970Z,987.11
2022-08-27T01:08:24.764Z,987.1
2022-08-27T01:09:27.514Z,987.06
2022-08-27T01:10:30.269Z,987.06
2022-08-27T01:11:33.058Z,987.03
2022-08-27T01:12:35.843Z,987.02
2022-08-27T01:14:01.622Z,987.03
2022-08-27T01:14:40.271Z,987
2022-08-27T01:15:43.035Z,986.97
2022-08-27T01:16:46.190Z,987.02
2022-08-27T01:17:49.091Z,986.97
2022-08-27T01:18:51.916Z,986.96
2022-08-27T01:19:54.705Z,986.95
2022-08-27T01:20:57.584Z,986.93
2022-08-27T01:22:00.363Z,986.94
2022-08-27T01:23:03.151Z,986.92
2022-08-27T01:24:05.967Z,986.94
2022-08-27T01:25:08.749Z,986.92
2022-08-27T01:26:11.539Z,986.94
2022-08-27T01:27:14.332Z,986.93
2022-08-27T01:28:37.696Z,986.93
2022-08-27T01:29:19.738Z,986.87
2022-08-27T01:30:22.514Z,986.89
2022-08-27T01:31:25.661Z,986.91
2022-08-27T01:32:28.507Z,986.88
2022-08-27T01:33:31.279Z,986.88
2022-08-27T01:34:34.092Z,986.91
2022-08-27T01:35:40.587Z,986.88
2022-08-27T01:36:39.882Z,986.93
2022-08-27T01:37:44.191Z,986.91
2022-08-27T01:38:44.281Z,986.93
2022-08-27T01:39:44.904Z,986.96
2022-08-27T01:40:45.950Z,986.93
2022-08-27T01:41:45.248Z,986.96
2022-08-27T01:42:48.091Z,986.95
2022-08-27T01:43:50.867Z,987.01
2022-08-27T01:44:53.642Z,987.02
2022-08-27T01:45:56.442Z,986.99
2022-08-27T01:46:59.589Z,987.04
2022-08-27T01:48:02.519Z,987
2022-08-27T01:49:05.318Z,987.01
2022-08-27T01:50:08.091Z,987
2022-08-27T01:51:10.862Z,987
2022-08-27T01:52:13.641Z,987.03
2022-08-27T01:53:18.416Z,987.01
2022-08-27T01:54:18.115Z,987
2022-08-27T01:55:20.889Z,987
2022-08-27T01:56:23.663Z,987.02
2022-08-27T01:57:26.690Z,986.98
2022-08-27T01:58:29.484Z,986.95
2022-08-27T01:59:40.346Z,986.98
2022-08-27T02:00:33.934Z,987.01
2022-08-27T02:01:33.472Z,986.98
2022-08-27T02:02:36.258Z,986.92
2022-08-27T02:03:39.039Z,986.95
2022-08-27T02:04:41.848Z,986.96
2022-08-27T02:05:45.400Z,986.95
2022-08-27T02:06:44.714Z,986.93
2022-08-27T02:07:47.501Z,986.98
2022-08-27T02:08:50.316Z,986.93
2022-08-27T02:09:53.103Z,986.93
2022-08-27T02:10:55.880Z,986.92
2022-08-27T02:11:58.659Z,986.89
2022-08-27T02:13:01.467Z,986.94
2022-08-27T02:14:13.736Z,986.91
2022-08-27T02:15:06.095Z,986.92
2022-08-27T02:16:09.313Z,986.9
2022-08-27T02:17:12.138Z,986.92
2022-08-27T02:18:14.918Z,986.89
2022-08-27T02:19:18.268Z,986.92
2022-08-27T02:20:18.512Z,986.93
2022-08-27T02:21:21.327Z,986.92
2022-08-27T02:22:24.070Z,986.92
2022-08-27T02:23:26.868Z,986.91
2022-08-27T02:24:29.631Z,986.92
2022-08-27T02:25:32.412Z,986.89
2022-08-27T02:26:35.197Z,986.9
2022-08-27T02:27:37.977Z,986.88
2022-08-27T02:28:40.775Z,986.89
2022-08-27T02:29:49.965Z,986.89
2022-08-27T02:30:45.951Z,986.88
2022-08-27T02:31:49.203Z,986.91
2022-08-27T02:32:52.076Z,986.91
2022-08-27T02:33:54.837Z,986.92
2022-08-27T02:34:57.629Z,986.88
2022-08-27T02:36:00.396Z,986.89
2022-08-27T02:37:03.174Z,986.86
2022-08-27T02:38:05.934Z,986.88
2022-08-27T02:39:08.704Z,986.92
2022-08-27T02:40:11.809Z,986.92
2022-08-27T02:41:14.649Z,986.92
2022-08-27T02:42:17.468Z,986.9
2022-08-27T02:43:28.368Z,986.88
2022-08-27T02:44:20.726Z,986.91
2022-08-27T02:45:23.515Z,986.93
2022-08-27T02:46:26.906Z,986.92
2022-08-27T02:47:29.760Z,986.92
2022-08-27T02:48:32.601Z,986.94
2022-08-27T02:49:35.368Z,986.93
2022-08-27T02:50:38.182Z,986.94
2022-08-27T02:51:41.000Z,986.94
2022-08-27T02:52:46.767Z,986.93
2022-08-27T02:53:46.082Z,986.93
2022-08-27T02:54:48.876Z,986.93
2022-08-27T02:55:51.665Z,986.95
2022-08-27T02:56:54.440Z,986.91
2022-08-27T02:57:57.217Z,986.92
2022-08-27T02:58:59.986Z,986.89
2022-08-27T03:00:02.755Z,986.91
2022-08-27T03:01:14.030Z,986.9
2022-08-27T03:02:07.014Z,986.89
2022-08-27T03:03:06.508Z,986.9
2022-08-27T03:04:09.285Z,986.88
2022-08-27T03:05:12.041Z,986.87
2022-08-27T03:06:14.843Z,986.89
2022-08-27T03:07:19.307Z,986.9
2022-08-27T03:08:18.611Z,986.87
2022-08-27T03:09:21.404Z,986.87
2022-08-27T03:10:24.181Z,986.88
2022-08-27T03:11:26.975Z,986.85
2022-08-27T03:12:29.737Z,986.84
2022-08-27T03:13:32.541Z,986.85
2022-08-27T03:14:35.346Z,986.83
2022-08-27T03:15:38.665Z,986.83
2022-08-27T03:16:41.508Z,986.85
2022-08-27T03:17:44.293Z,986.82
2022-08-27T03:18:47.101Z,986.86
2022-08-27T03:19:49.939Z,986.83
2022-08-27T03:20:52.750Z,986.86
2022-08-27T03:21:55.495Z,986.81
2022-08-27T03:22:58.271Z,986.84
2022-08-27T03:24:15.033Z,986.82
2022-08-27T03:25:03.906Z,986.82
2022-08-27T03:26:06.670Z,986.83
2022-08-27T03:27:09.457Z,986.83
2022-08-27T03:28:28.656Z,986.88
2022-08-27T03:29:14.042Z,986.88
2022-08-27T03:30:16.830Z,986.87
2022-08-27T03:31:19.926Z,986.88
2022-08-27T03:32:22.891Z,986.87
2022-08-27T03:33:25.653Z,986.89
2022-08-27T03:34:28.442Z,986.85
2022-08-27T03:35:34.567Z,986.84
2022-08-27T03:36:33.915Z,986.85
2022-08-27T03:37:36.728Z,986.85
2022-08-27T03:38:39.537Z,986.79
2022-08-27T03:39:42.418Z,986.81
2022-08-27T03:40:45.221Z,986.86
2022-08-27T03:41:57.633Z,986.83
2022-08-27T03:42:49.975Z,986.83
2022-08-27T03:43:52.812Z,986.87
2022-08-27T03:44:55.578Z,986.88
2022-08-27T03:46:02.798Z,986.89
2022-08-27T03:46:58.628Z,986.84
2022-08-27T03:48:01.383Z,986.86
2022-08-27T03:49:04.537Z,986.85
2022-08-27T03:50:07.323Z,986.8
2022-08-27T03:51:10.134Z,986.84
2022-08-27T03:52:12.916Z,986.8
2022-08-27T03:53:15.737Z,986.81
2022-08-27T03:54:18.502Z,986.77
2022-08-27T03:55:21.244Z,986.77
2022-08-27T03:56:24.069Z,986.78
2022-08-27T03:57:26.840Z,986.74
2022-08-27T03:58:29.601Z,986.75
2022-08-27T03:59:32.360Z,986.75
2022-08-27T04:00:35.150Z,986.76
2022-08-27T04:01:38.491Z,986.77
2022-08-27T04:02:42.089Z,986.71
2022-08-27T04:03:41.438Z,986.72
2022-08-27T04:04:44.305Z,986.7
2022-08-27T04:05:47.072Z,986.67
2022-08-27T04:06:49.848Z,986.65
2022-08-27T04:07:52.642Z,986.68
2022-08-27T04:08:55.428Z,986.71
2022-08-27T04:09:58.184Z,986.66
2022-08-27T04:11:00.965Z,986.69
2022-08-27T04:12:03.742Z,986.7
2022-08-27T04:13:06.539Z,986.68
2022-08-27T04:14:27.875Z,986.69
2022-08-27T04:15:09.845Z,986.69
2022-08-27T04:16:13.078Z,986.71
2022-08-27T04:17:15.855Z,986.73
2022-08-27T04:18:18.640Z,986.71
2022-08-27T04:19:28.757Z,986.7
2022-08-27T04:20:36.621Z,986.73
2022-08-27T04:21:25.625Z,986.7
2022-08-27T04:22:28.414Z,986.75
2022-08-27T04:23:31.182Z,986.73
2022-08-27T04:24:33.987Z,986.76
2022-08-27T04:25:36.781Z,986.8
2022-08-27T04:26:40.271Z,986.83
2022-08-27T04:27:39.749Z,986.83
2022-08-27T04:28:53.625Z,986.85
2022-08-27T04:29:43.193Z,986.85
2022-08-27T04:30:47.683Z,986.86
2022-08-27T04:31:51.390Z,986.86
2022-08-27T04:32:51.148Z,986.86
2022-08-27T04:34:00.191Z,986.83
2022-08-27T04:34:57.102Z,986.84
2022-08-27T04:36:02.522Z,986.83
2022-08-27T04:36:57.369Z,986.84
2022-08-27T04:37:57.461Z,986.82
2022-08-27T04:38:57.714Z,986.85
2022-08-27T04:40:01.237Z,986.86
2022-08-27T04:41:07.316Z,986.86
2022-08-27T04:42:00.223Z,986.91
2022-08-27T04:43:03.781Z,986.88
2022-08-27T04:44:03.531Z,986.91
2022-08-27T04:45:07.697Z,986.89
2022-08-27T04:46:11.332Z,986.92
2022-08-27T04:47:07.863Z,986.91
2022-08-27T04:48:12.558Z,986.92
2022-08-27T04:49:12.568Z,986.93
2022-08-27T04:50:14.143Z,986.93
2022-08-27T04:51:18.446Z,986.85
2022-08-27T04:52:11.774Z,986.91
2022-08-27T04:53:20.652Z,986.86
2022-08-27T04:54:33.339Z,986.83
2022-08-27T04:55:20.211Z,986.84
2022-08-27T04:56:19.926Z,986.82
2022-08-27T04:57:26.247Z,986.78
2022-08-27T04:58:25.989Z,986.82
2022-08-27T04:59:29.394Z,986.82
2022-08-27T05:00:33.323Z,986.84
2022-08-27T05:01:36.393Z,986.82
2022-08-27T05:02:36.172Z,986.85
2022-08-27T05:03:40.091Z,986.89
2022-08-27T05:04:48.576Z,986.84
2022-08-27T05:05:44.719Z,986.87
2022-08-27T05:06:45.821Z,986.91
2022-08-27T05:07:46.257Z,986.87
2022-08-27T05:08:54.213Z,986.9
2022-08-27T05:09:57.520Z,986.91
2022-08-27T05:10:50.699Z,986.91
2022-08-27T05:11:56.469Z,986.91
2022-08-27T05:13:01.795Z,986.92
2022-08-27T05:13:58.728Z,986.92
2022-08-27T05:15:02.024Z,986.92
2022-08-27T05:16:02.073Z,986.9
2022-08-27T05:17:06.388Z,986.91
2022-08-27T05:18:03.920Z,986.91
2022-08-27T05:19:04.018Z,986.88
2022-08-27T05:20:04.776Z,986.86
2022-08-27T05:21:12.642Z,986.89
2022-08-27T05:22:05.850Z,986.88
2022-08-27T05:23:10.051Z,986.87
2022-08-27T05:24:10.235Z,986.85
2022-08-27T05:25:10.582Z,986.84
2022-08-27T05:26:11.742Z,986.87
2022-08-27T08:27:52.750Z,987.39
2022-08-27T08:28:55.594Z,987.41
2022-08-27T08:29:58.380Z,987.42
2022-08-27T08:31:03.093Z,987.44
2022-08-27T08:32:02.534Z,987.42
2022-08-27T08:33:05.417Z,987.49
2022-08-27T08:34:08.350Z,987.46
2022-08-27T08:35:11.333Z,987.47
2022-08-27T08:36:14.297Z,987.46
2022-08-27T08:37:17.174Z,987.52
2022-08-27T08:38:20.063Z,987.57
2022-08-27T08:39:23.002Z,987.54
2022-08-27T08:40:26.172Z,987.55
2022-08-27T08:41:23.807Z,987.59
2022-08-27T08:42:26.614Z,987.58
2022-08-27T08:43:29.405Z,987.56
2022-08-27T08:44:32.330Z,987.57
2022-08-27T08:45:35.113Z,987.56
2022-08-27T08:46:38.003Z,987.61
2022-08-27T08:47:40.889Z,987.58
2022-08-27T08:48:43.728Z,987.62
2022-08-27T08:49:47.640Z,987.59
2022-08-27T08:50:46.993Z,987.63
2022-08-27T08:51:49.882Z,987.62
2022-08-27T08:52:52.689Z,987.65
2022-08-27T08:53:55.613Z,987.64
2022-08-27T08:54:58.765Z,987.65
2022-08-27T08:56:01.588Z,987.63
2022-08-27T08:57:04.442Z,987.64
2022-08-27T08:58:07.477Z,987.65
2022-08-27T08:59:10.314Z,987.67
2022-08-27T09:00:13.578Z,987.66
2022-08-27T09:01:19.904Z,987.66
2022-08-27T09:02:19.405Z,987.68
2022-08-27T09:03:22.434Z,987.63
2022-08-27T09:04:25.350Z,987.66
2022-08-27T09:05:28.358Z,987.66
2022-08-27T09:06:31.190Z,987.62
2022-08-27T09:07:36.887Z,987.68
2022-08-27T09:08:42.990Z,987.65
2022-08-27T09:09:39.088Z,987.69
2022-08-27T09:10:41.911Z,987.68
2022-08-27T09:11:44.729Z,987.68
2022-08-27T09:12:47.552Z,987.67
2022-08-27T09:13:50.390Z,987.67
2022-08-27T09:14:54.246Z,987.69
2022-08-27T09:15:53.616Z,987.71
2022-08-27T09:16:58.001Z,987.73
2022-08-27T09:17:57.484Z,987.76
2022-08-27T09:19:00.755Z,987.7
2022-08-27T09:20:03.598Z,987.74
2022-08-27T09:21:10.353Z,987.74
2022-08-27T09:22:09.721Z,987.71
2022-08-27T09:23:12.608Z,987.76
2022-08-27T09:24:15.468Z,987.74
2022-08-27T09:25:21.545Z,987.76
2022-08-27T09:26:21.222Z,987.7
2022-08-27T09:27:24.038Z,987.71
2022-08-27T09:28:26.849Z,987.7
2022-08-27T09:29:29.649Z,987.7
2022-08-27T09:30:32.986Z,987.65
2022-08-27T09:31:35.859Z,987.68
2022-08-27T09:32:38.880Z,987.69
2022-08-27T09:33:57.670Z,987.69
2022-08-27T09:34:43.119Z,987.67
2022-08-27T09:35:45.905Z,987.72
2022-08-27T09:36:48.761Z,987.67
2022-08-27T09:37:51.565Z,987.69
2022-08-27T09:38:58.815Z,987.68
2022-08-27T09:39:54.919Z,987.64
2022-08-27T09:40:57.772Z,987.67
2022-08-27T09:42:00.563Z,987.66
2022-08-27T09:43:03.390Z,987.64
2022-08-27T09:44:06.219Z,987.64
2022-08-27T09:45:12.346Z,987.68
2022-08-27T09:46:12.118Z,987.67
2022-08-27T09:47:15.106Z,987.67
2022-08-27T09:48:17.914Z,987.7
2022-08-27T09:49:20.711Z,987.67
2022-08-27T09:50:23.670Z,987.67
2022-08-27T09:51:26.454Z,987.7
2022-08-27T09:52:29.244Z,987.65
2022-08-27T09:53:32.053Z,987.7
2022-08-27T09:54:34.845Z,987.66
2022-08-27T09:55:41.037Z,987.65
2022-08-27T09:56:40.348Z,987.68
2022-08-27T09:57:43.139Z,987.65
2022-08-27T09:58:45.955Z,987.62
2022-08-27T09:59:48.799Z,987.64
2022-08-27T10:00:52.017Z,987.6
2022-08-27T10:01:55.023Z,987.57
2022-08-27T10:02:57.872Z,987.62
2022-08-27T10:04:00.936Z,987.55
2022-08-27T10:05:03.766Z,987.6
2022-08-27T10:06:06.610Z,987.58
2022-08-27T10:07:09.753Z,987.58
2022-08-27T10:08:12.866Z,987.57
2022-08-27T10:09:15.656Z,987.62
2022-08-27T10:10:18.475Z,987.58
2022-08-27T10:11:23.472Z,987.65
2022-08-27T10:12:22.855Z,987.63
2022-08-27T10:13:25.671Z,987.61
2022-08-27T10:14:28.489Z,987.57
2022-08-27T10:15:47.728Z,987.6
2022-08-27T10:16:31.768Z,987.55
2022-08-27T10:17:34.688Z,987.53
2022-08-27T10:18:37.759Z,987.57
2022-08-27T10:19:40.582Z,987.54
2022-08-27T10:20:43.375Z,987.55
2022-08-27T10:21:46.211Z,987.56
2022-08-27T10:22:49.026Z,987.58
2022-08-27T10:23:51.846Z,987.56
2022-08-27T10:24:54.653Z,987.56
2022-08-27T10:25:57.442Z,987.56
2022-08-27T10:27:00.274Z,987.59
2022-08-27T10:28:03.081Z,987.6
2022-08-27T10:29:05.928Z,987.6
2022-08-27T10:30:09.222Z,987.63
2022-08-27T10:31:08.736Z,987.65
2022-08-27T10:32:17.100Z,987.66
2022-08-27T10:33:13.515Z,987.67
2022-08-27T10:34:17.219Z,987.68
2022-08-27T10:35:17.212Z,987.7
2022-08-27T10:36:20.018Z,987.73
2022-08-27T10:37:23.589Z,987.76
2022-08-27T10:38:22.916Z,987.77
2022-08-27T10:39:25.778Z,987.72
2022-08-27T10:40:28.869Z,987.74
2022-08-27T10:41:31.735Z,987.72
2022-08-27T10:42:34.570Z,987.76
2022-08-27T10:43:37.382Z,987.79
2022-08-27T10:44:40.446Z,987.81
2022-08-27T10:45:43.529Z,987.82
2022-08-27T10:46:51.101Z,987.81
2022-08-27T10:47:46.934Z,987.8
2022-08-27T10:48:49.766Z,987.82
2022-08-27T10:49:52.559Z,987.85
2022-08-27T10:50:55.359Z,987.83
2022-08-27T10:51:58.169Z,987.81
2022-08-27T10:53:01.005Z,987.84
2022-08-27T10:54:03.867Z,987.82
2022-08-27T10:55:07.513Z,987.82
2022-08-27T10:56:06.902Z,987.82
2022-08-27T10:57:56.700Z,987.83
2022-08-27T10:58:14.168Z,987.86
2022-08-27T10:59:13.673Z,987.86
2022-08-27T11:00:16.508Z,987.87
2022-08-27T11:01:20.075Z,987.84
2022-08-27T11:02:19.913Z,987.83
2022-08-27T11:03:23.145Z,987.82
2022-08-27T11:04:26.094Z,987.83
2022-08-27T11:05:28.904Z,987.83
2022-08-27T11:06:31.708Z,987.87
2022-08-27T11:07:34.522Z,987.85
2022-08-27T11:08:37.301Z,987.79
2022-08-27T11:09:40.258Z,987.85
2022-08-27T11:10:43.109Z,987.81
2022-08-27T11:12:16.043Z,987.81
2022-08-27T11:12:47.613Z,987.81
2022-08-27T11:13:50.436Z,987.81
2022-08-27T11:14:53.245Z,987.88
2022-08-27T11:15:56.044Z,987.82
2022-08-27T11:16:59.441Z,987.83
2022-08-27T11:18:02.328Z,987.82
2022-08-27T11:19:05.142Z,987.84
2022-08-27T11:20:08.200Z,987.84
2022-08-27T11:21:11.071Z,987.84
2022-08-27T11:22:26.858Z,987.9
2022-08-27T11:23:15.888Z,987.88
2022-08-27T11:24:18.683Z,987.9
2022-08-27T11:25:21.478Z,987.92
2022-08-27T11:26:24.300Z,987.93
2022-08-27T11:27:27.112Z,987.94
2022-08-27T11:28:30.673Z,987.95
2022-08-27T11:29:30.804Z,987.95
2022-08-27T11:30:31.026Z,987.94
2022-08-27T11:31:34.129Z,987.94
2022-08-27T11:32:36.998Z,987.95
2022-08-27T11:33:46.531Z,987.97
2022-08-27T11:34:42.446Z,987.95
2022-08-27T11:35:45.285Z,987.93
2022-08-27T11:36:54.900Z,987.93
2022-08-27T11:37:50.807Z,987.93
2022-08-27T11:38:53.617Z,987.9
2022-08-27T11:39:56.794Z,987.92
2022-08-27T11:40:59.640Z,987.92
2022-08-27T11:42:02.951Z,987.88
2022-08-27T11:43:05.813Z,987.87
2022-08-27T11:44:13.774Z,987.92
2022-08-27T11:45:09.645Z,987.88
2022-08-27T11:46:12.462Z,987.85
2022-08-27T11:47:15.281Z,987.82
2022-08-27T11:48:18.092Z,987.88
2022-08-27T11:49:20.885Z,987.87
2022-08-27T11:50:23.702Z,987.86
2022-08-27T11:51:26.507Z,987.85
2022-08-27T11:52:29.847Z,987.83
2022-08-27T11:53:32.648Z,987.8
2022-08-27T11:54:35.430Z,987.79
2022-08-27T11:55:40.974Z,987.77
2022-08-27T11:56:40.321Z,987.82
2022-08-27T11:57:43.122Z,987.79
2022-08-27T11:58:53.950Z,987.8
2022-08-27T11:59:46.332Z,987.8
2022-08-27T12:00:49.148Z,987.78
2022-08-27T12:01:51.931Z,987.8
2022-08-27T12:02:55.149Z,987.76
2022-08-27T12:03:58.115Z,987.78
2022-08-27T12:05:00.994Z,987.76
2022-08-27T12:06:03.815Z,987.72
2022-08-27T12:07:06.651Z,987.73
2022-08-27T12:08:09.940Z,987.72
2022-08-27T12:09:12.834Z,987.7
2022-08-27T12:10:15.651Z,987.7
2022-08-27T12:11:19.311Z,987.65
2022-08-27T12:12:19.282Z,987.66
2022-08-27T12:13:22.110Z,987.64
2022-08-27T12:14:24.918Z,987.69
2022-08-27T12:15:34.814Z,987.67
2022-08-27T12:16:31.218Z,987.71
2022-08-27T12:17:34.184Z,987.62
2022-08-27T12:18:36.995Z,987.64
2022-08-27T12:19:39.812Z,987.66
2022-08-27T12:20:42.626Z,987.66
2022-08-27T12:21:45.427Z,987.63
2022-08-27T12:22:48.211Z,987.65
2022-08-27T12:23:51.059Z,987.65
2022-08-27T12:24:56.990Z,987.66
2022-08-27T12:25:57.720Z,987.65
2022-08-27T12:26:57.073Z,987.64
2022-08-27T12:27:59.885Z,987.63
2022-08-27T12:29:02.680Z,987.62
2022-08-27T12:30:05.537Z,987.61
2022-08-27T12:31:08.652Z,987.59
2022-08-27T12:32:11.624Z,987.6
2022-08-27T12:33:14.511Z,987.59
2022-08-27T12:34:21.057Z,987.65
2022-08-27T12:35:20.422Z,987.64
2022-08-27T12:36:28.853Z,987.62
2022-08-27T12:37:25.442Z,987.64
2022-08-27T12:38:25.077Z,987.64
2022-08-27T12:39:29.054Z,987.63
2022-08-27T12:40:28.915Z,987.61
2022-08-27T12:41:32.049Z,987.61
2022-08-27T12:42:34.879Z,987.62
2022-08-27T12:43:37.706Z,987.61
2022-08-27T12:44:40.502Z,987.66
2022-08-27T12:45:43.407Z,987.66
2022-08-27T12:46:46.759Z,987.65
2022-08-27T12:47:51.394Z,987.65
2022-08-27T12:48:47.270Z,987.64
2022-08-27T12:49:56.289Z,987.63
2022-08-27T12:50:53.662Z,987.67
2022-08-27T12:51:53.046Z,987.65
2022-08-27T12:52:55.911Z,987.63
2022-08-27T12:53:58.795Z,987.63
2022-08-27T12:55:01.963Z,987.64
2022-08-27T12:56:04.811Z,987.66
2022-08-27T12:57:07.640Z,987.65
2022-08-27T12:58:16.702Z,987.63
2022-08-27T12:59:13.070Z,987.62
2022-08-27T13:00:15.900Z,987.6
2022-08-27T13:01:19.305Z,987.64
2022-08-27T13:02:22.186Z,987.61
2022-08-27T13:03:25.047Z,987.65
2022-08-27T13:04:28.411Z,987.62
2022-08-27T13:05:31.287Z,987.59
2022-08-27T13:06:36.216Z,987.61
2022-08-27T13:07:38.631Z,987.66
2022-08-27T13:08:38.190Z,987.6
2022-08-27T13:09:41.018Z,987.61
2022-08-27T13:10:43.799Z,987.59
2022-08-27T13:11:46.634Z,987.6
2022-08-27T13:12:49.442Z,987.61
2022-08-27T13:13:52.232Z,987.55
2022-08-27T13:14:57.464Z,987.55
2022-08-27T13:15:57.192Z,987.57
2022-08-27T13:16:59.998Z,987.6
2022-08-27T13:18:03.524Z,987.58
2022-08-27T13:19:02.877Z,987.57
2022-08-27T13:20:05.746Z,987.55
2022-08-27T13:21:08.567Z,987.55
2022-08-27T13:22:11.370Z,987.59
2022-08-27T13:23:20.741Z,987.56
2022-08-27T13:24:16.734Z,987.6
2022-08-27T13:25:19.565Z,987.61
2022-08-27T13:26:22.354Z,987.59
2022-08-27T13:27:27.421Z,987.61
2022-08-27T13:28:26.750Z,987.59
2022-08-27T13:29:29.558Z,987.6
2022-08-27T13:30:36.865Z,987.62
2022-08-27T13:31:33.114Z,987.65
2022-08-27T13:32:36.014Z,987.66
2022-08-27T13:33:38.857Z,987.59
2022-08-27T13:34:41.684Z,987.63
2022-08-27T13:35:44.755Z,987.58
2022-08-27T13:36:47.547Z,987.61
2022-08-27T13:37:50.388Z,987.57
2022-08-27T13:38:53.217Z,987.57
2022-08-27T13:39:56.435Z,987.59
2022-08-27T13:40:59.323Z,987.56
2022-08-27T13:42:02.181Z,987.54
2022-08-27T13:43:09.281Z,987.57
2022-08-27T13:44:05.195Z,987.55
2022-08-27T13:45:08.552Z,987.57
2022-08-27T13:46:12.788Z,987.56
2022-08-27T13:47:12.616Z,987.55
2022-08-27T13:48:15.456Z,987.62
2022-08-27T13:49:18.448Z,987.55
2022-08-27T13:50:21.303Z,987.56
2022-08-27T13:51:24.501Z,987.52
2022-08-27T13:52:27.310Z,987.53
2022-08-27T13:53:30.129Z,987.54
2022-08-27T13:54:33.007Z,987.5
2022-08-27T13:55:35.841Z,987.49
2022-08-27T13:56:38.673Z,987.5
2022-08-27T13:57:41.524Z,987.47
2022-08-27T13:58:44.339Z,987.51
2022-08-27T13:59:47.180Z,987.49
2022-08-27T14:00:52.251Z,987.51
2022-08-27T14:01:52.298Z,987.46
2022-08-27T14:02:56.910Z,987.47
2022-08-27T14:03:52.834Z,987.48
2022-08-27T14:04:55.676Z,987.45
2022-08-27T14:05:58.541Z,987.49
2022-08-27T14:07:01.400Z,987.53
2022-08-27T14:08:04.414Z,987.49
2022-08-27T14:09:07.336Z,987.48
2022-08-27T14:10:10.209Z,987.44
2022-08-27T14:11:13.077Z,987.42
2022-08-27T14:12:16.149Z,987.41
2022-08-27T14:13:18.974Z,987.42
2022-08-27T14:14:21.828Z,987.37
2022-08-27T14:15:24.612Z,987.4
2022-08-27T14:16:27.724Z,987.38
2022-08-27T14:17:30.721Z,987.41
2022-08-27T14:18:59.898Z,987.44
2022-08-27T14:19:37.348Z,987.42
2022-08-27T14:20:36.732Z,987.41
2022-08-27T14:21:39.550Z,987.41
2022-08-27T14:22:42.416Z,987.41
2022-08-27T14:23:45.532Z,987.39
2022-08-27T14:24:48.385Z,987.37
2022-08-27T14:25:51.202Z,987.37
2022-08-27T14:26:54.093Z,987.37
2022-08-27T14:27:56.952Z,987.37
2022-08-27T14:28:59.752Z,987.35
2022-08-27T14:30:03.033Z,987.35
2022-08-27T14:31:06.405Z,987.35
2022-08-27T14:32:09.235Z,987.33
2022-08-27T14:33:12.049Z,987.32
2022-08-27T14:34:14.956Z,987.33
2022-08-27T14:35:25.667Z,987.26
2022-08-27T14:36:18.081Z,987.28
2022-08-27T14:37:20.913Z,987.31
2022-08-27T14:38:23.829Z,987.29
2022-08-27T14:39:29.693Z,987.28
2022-08-27T14:40:29.308Z,987.28
2022-08-27T14:42:34.507Z,987.23
2022-08-27T14:43:36.229Z,987.23
2022-08-27T14:44:36.212Z,987.21
2022-08-27T14:45:40.192Z,987.19
2022-08-27T14:46:54.933Z,987.2
2022-08-27T14:47:52.644Z,987.22
2022-08-27T14:49:30.128Z,987.2
2022-08-27T14:49:52.939Z,987.21
2022-08-27T14:51:33.192Z,987.22
2022-08-27T14:51:53.048Z,987.26
2022-08-27T14:52:56.936Z,987.24
2022-08-27T14:53:55.114Z,987.28
2022-08-27T14:55:10.061Z,987.25
2022-08-27T14:55:58.152Z,987.3
2022-08-27T14:57:03.851Z,987.26
2022-08-27T14:57:56.989Z,987.24
2022-08-27T14:59:13.330Z,987.25
2022-08-27T15:00:08.256Z,987.26
2022-08-27T15:02:36.068Z,987.26
2022-08-27T15:03:00.839Z,987.28
2022-08-27T15:03:47.663Z,987.25
2022-08-27T15:04:53.678Z,987.22
2022-08-27T15:05:49.096Z,987.24
2022-08-27T15:07:44.610Z,987.23
2022-08-27T15:07:51.669Z,987.25
2022-08-27T15:09:05.360Z,987.25
